sensor_id;sensor_type;location;lat;lon;timestamp;pressure;altitude;pressure_sealevel;temperature;humidity
30618;BME280;17384;51.214;9.202;2023-08-07T00:00:25;97947.03;;;12.23;100.00
30618;BME280;17384;51.214;9.202;2023-08-07T00:02:51;97952.22;;;12.25;100.00
30618;BME280;17384;51.214;9.202;2023-08-07T00:05:17;97959.56;;;12.24;100.00
30618;BME280;17384;51.214;9.202;2023-08-07T00:07:43;97941.50;;;12.18;100.00
30618;BME280;17384;51.214;9.202;2023-08-07T00:10:08;97952.38;;;12.18;100.00
30618;BME280;17384;51.214;9.202;2023-08-07T00:12:34;97940.19;;;12.20;100.00
30618;BME280;17384;51.214;9.202;2023-08-07T00:15:00;97957.31;;;12.21;100.00
30618;BME280;17384;51.214;9.202;2023-08-07T00:17:26;97953.19;;;12.18;100.00
30618;BME280;17384;51.214;9.202;2023-08-07T00:19:52;97965.72;;;12.19;100.00
30618;BME280;17384;51.214;9.202;2023-08-07T00:22:17;97956.16;;;12.17;100.00
30618;BME280;17384;51.214;9.202;2023-08-07T00:24:43;97960.28;;;12.19;100.00
30618;BME280;17384;51.214;9.202;2023-08-07T00:27:09;97955.19;;;12.23;100.00
30618;BME280;17384;51.214;9.202;2023-08-07T00:29:38;97950.72;;;12.17;100.00
30618;BME280;17384;51.214;9.202;2023-08-07T00:32:04;97960.78;;;12.16;100.00
30618;BME280;17384;51.214;9.202;2023-08-07T00:34:30;97955.09;;;12.18;100.00
30618;BME280;17384;51.214;9.202;2023-08-07T00:36:56;97966.16;;;12.28;100.00
30618;BME280;17384;51.214;9.202;2023-08-07T00:39:22;97950.06;;;12.27;100.00
30618;BME280;17384;51.214;9.202;2023-08-07T00:41:47;97964.25;;;12.29;100.00
30618;BME280;17384;51.214;9.202;2023-08-07T00:44:13;97967.84;;;12.34;100.00
30618;BME280;17384;51.214;9.202;2023-08-07T00:46:39;97963.25;;;12.35;100.00
30618;BME280;17384;51.214;9.202;2023-08-07T00:49:05;97957.81;;;12.35;100.00
30618;BME280;17384;51.214;9.202;2023-08-07T00:51:32;97962.16;;;12.36;100.00
30618;BME280;17384;51.214;9.202;2023-08-07T00:53:58;97967.28;;;12.32;100.00
30618;BME280;17384;51.214;9.202;2023-08-07T00:56:26;97954.25;;;12.34;100.00
30618;BME280;17384;51.214;9.202;2023-08-07T00:58:52;97966.78;;;12.35;100.00
30618;BME280;17384;51.214;9.202;2023-08-07T01:01:18;97971.72;;;12.38;100.00
30618;BME280;17384;51.214;9.202;2023-08-07T01:03:44;97976.25;;;12.33;100.00
30618;BME280;17384;51.214;9.202;2023-08-07T01:06:10;97964.06;;;12.35;100.00
30618;BME280;17384;51.214;9.202;2023-08-07T01:08:36;97979.91;;;12.38;100.00
30618;BME280;17384;51.214;9.202;2023-08-07T01:16:36;97979.09;;;12.54;100.00
30618;BME280;17384;51.214;9.202;2023-08-07T01:19:04;97982.22;;;12.46;100.00
30618;BME280;17384;51.214;9.202;2023-08-07T01:21:32;97972.88;;;12.42;100.00
30618;BME280;17384;51.214;9.202;2023-08-07T01:23:58;97969.94;;;12.44;100.00
30618;BME280;17384;51.214;9.202;2023-08-07T01:26:23;97961.03;;;12.48;100.00
30618;BME280;17384;51.214;9.202;2023-08-07T01:28:55;97971.09;;;12.48;100.00
30618;BME280;17384;51.214;9.202;2023-08-07T01:31:24;97974.44;;;12.38;100.00
30618;BME280;17384;51.214;9.202;2023-08-07T01:33:57;97976.09;;;12.39;100.00
30618;BME280;17384;51.214;9.202;2023-08-07T01:36:30;97969.44;;;12.30;100.00
30618;BME280;17384;51.214;9.202;2023-08-07T01:38:57;97962.66;;;12.33;100.00
30618;BME280;17384;51.214;9.202;2023-08-07T01:41:25;97968.44;;;12.36;100.00
30618;BME280;17384;51.214;9.202;2023-08-07T01:43:51;97974.13;;;12.35;100.00
30618;BME280;17384;51.214;9.202;2023-08-07T01:46:18;97988.47;;;12.30;100.00
30618;BME280;17384;51.214;9.202;2023-08-07T01:48:43;97978.97;;;12.33;100.00
30618;BME280;17384;51.214;9.202;2023-08-07T01:51:09;97979.31;;;12.36;100.00
30618;BME280;17384;51.214;9.202;2023-08-07T01:53:35;97989.38;;;12.36;100.00
30618;BME280;17384;51.214;9.202;2023-08-07T01:56:00;97990.78;;;12.38;100.00
30618;BME280;17384;51.214;9.202;2023-08-07T01:58:26;97984.13;;;12.29;100.00
30618;BME280;17384;51.214;9.202;2023-08-07T02:00:52;97978.69;;;12.29;100.00
30618;BME280;17384;51.214;9.202;2023-08-07T02:03:19;97995.28;;;12.33;100.00
30618;BME280;17384;51.214;9.202;2023-08-07T02:05:45;97996.56;;;12.25;100.00
30618;BME280;17384;51.214;9.202;2023-08-07T02:08:11;97991.59;;;12.22;100.00
30618;BME280;17384;51.214;9.202;2023-08-07T02:10:37;97996.06;;;12.28;100.00
30618;BME280;17384;51.214;9.202;2023-08-07T02:13:02;97993.59;;;12.27;100.00
30618;BME280;17384;51.214;9.202;2023-08-07T02:15:28;97992.03;;;12.31;100.00
30618;BME280;17384;51.214;9.202;2023-08-07T02:17:54;97993.91;;;12.30;100.00
30618;BME280;17384;51.214;9.202;2023-08-07T02:20:19;97996.69;;;12.35;100.00
30618;BME280;17384;51.214;9.202;2023-08-07T02:22:45;98001.16;;;12.41;100.00
30618;BME280;17384;51.214;9.202;2023-08-07T02:25:11;97993.34;;;12.45;100.00
30618;BME280;17384;51.214;9.202;2023-08-07T02:27:36;97992.59;;;12.49;100.00
30618;BME280;17384;51.214;9.202;2023-08-07T02:30:02;97988.22;;;12.48;100.00
30618;BME280;17384;51.214;9.202;2023-08-07T02:32:29;97983.19;;;12.40;100.00
30618;BME280;17384;51.214;9.202;2023-08-07T02:34:58;97980.06;;;12.32;100.00
30618;BME280;17384;51.214;9.202;2023-08-07T02:37:24;97991.69;;;12.44;100.00
30618;BME280;17384;51.214;9.202;2023-08-07T02:39:49;97996.78;;;12.40;100.00
30618;BME280;17384;51.214;9.202;2023-08-07T02:42:15;97991.03;;;12.37;100.00
30618;BME280;17384;51.214;9.202;2023-08-07T02:44:41;97990.53;;;12.40;100.00
30618;BME280;17384;51.214;9.202;2023-08-07T02:47:06;97993.81;;;12.42;100.00
30618;BME280;17384;51.214;9.202;2023-08-07T02:49:32;97990.28;;;12.25;100.00
30618;BME280;17384;51.214;9.202;2023-08-07T02:51:58;97989.47;;;12.24;100.00
30618;BME280;17384;51.214;9.202;2023-08-07T02:54:24;97989.03;;;12.32;100.00
30618;BME280;17384;51.214;9.202;2023-08-07T02:56:49;97984.50;;;12.38;100.00
30618;BME280;17384;51.214;9.202;2023-08-07T02:59:15;97983.88;;;12.31;100.00
30618;BME280;17384;51.214;9.202;2023-08-07T03:01:44;97980.38;;;12.35;100.00
30618;BME280;17384;51.214;9.202;2023-08-07T03:04:10;97977.59;;;12.30;100.00
30618;BME280;17384;51.214;9.202;2023-08-07T03:06:35;97978.09;;;12.27;100.00
30618;BME280;17384;51.214;9.202;2023-08-07T03:09:01;97978.72;;;12.17;100.00
30618;BME280;17384;51.214;9.202;2023-08-07T03:11:26;97974.22;;;12.23;100.00
30618;BME280;17384;51.214;9.202;2023-08-07T03:13:52;97978.97;;;12.16;100.00
30618;BME280;17384;51.214;9.202;2023-08-07T03:16:18;97981.13;;;12.14;100.00
30618;BME280;17384;51.214;9.202;2023-08-07T03:18:43;97985.59;;;12.20;100.00
30618;BME280;17384;51.214;9.202;2023-08-07T03:21:09;97980.53;;;12.12;100.00
30618;BME280;17384;51.214;9.202;2023-08-07T03:23:35;97982.44;;;12.11;100.00
30618;BME280;17384;51.214;9.202;2023-08-07T03:26:05;97980.88;;;12.32;100.00
30618;BME280;17384;51.214;9.202;2023-08-07T03:28:32;97987.06;;;12.28;100.00
30618;BME280;17384;51.214;9.202;2023-08-07T03:30:58;97980.16;;;12.20;100.00
30618;BME280;17384;51.214;9.202;2023-08-07T03:33:23;97975.28;;;12.22;100.00
30618;BME280;17384;51.214;9.202;2023-08-07T03:35:49;97980.81;;;12.27;100.00
30618;BME280;17384;51.214;9.202;2023-08-07T03:38:15;97996.38;;;12.32;100.00
30618;BME280;17384;51.214;9.202;2023-08-07T03:40:40;97982.78;;;12.32;100.00
30618;BME280;17384;51.214;9.202;2023-08-07T03:43:06;97993.91;;;12.30;100.00
30618;BME280;17384;51.214;9.202;2023-08-07T03:45:31;97982.22;;;12.30;100.00
30618;BME280;17384;51.214;9.202;2023-08-07T03:47:57;97994.75;;;12.31;100.00
30618;BME280;17384;51.214;9.202;2023-08-07T03:50:22;97989.94;;;12.21;100.00
30618;BME280;17384;51.214;9.202;2023-08-07T03:52:48;97992.56;;;12.16;100.00
30618;BME280;17384;51.214;9.202;2023-08-07T03:55:14;98015.00;;;12.23;100.00
30618;BME280;17384;51.214;9.202;2023-08-07T03:57:39;98007.91;;;12.22;100.00
30618;BME280;17384;51.214;9.202;2023-08-07T04:00:05;97988.94;;;12.10;100.00
30618;BME280;17384;51.214;9.202;2023-08-07T04:02:31;98006.41;;;12.14;100.00
30618;BME280;17384;51.214;9.202;2023-08-07T04:04:57;97995.09;;;12.06;100.00
30618;BME280;17384;51.214;9.202;2023-08-07T04:07:22;97990.84;;;12.10;100.00
30618;BME280;17384;51.214;9.202;2023-08-07T04:09:48;98003.13;;;12.12;100.00
30618;BME280;17384;51.214;9.202;2023-08-07T04:12:13;97995.88;;;12.18;100.00
30618;BME280;17384;51.214;9.202;2023-08-07T04:14:39;98018.47;;;12.18;100.00
30618;BME280;17384;51.214;9.202;2023-08-07T04:17:04;98015.84;;;12.24;100.00
30618;BME280;17384;51.214;9.202;2023-08-07T04:19:30;98011.72;;;12.21;100.00
30618;BME280;17384;51.214;9.202;2023-08-07T04:21:55;98018.22;;;12.20;100.00
30618;BME280;17384;51.214;9.202;2023-08-07T04:24:21;98009.72;;;12.16;100.00
30618;BME280;17384;51.214;9.202;2023-08-07T04:26:46;98019.28;;;12.19;100.00
30618;BME280;17384;51.214;9.202;2023-08-07T04:29:15;98010.53;;;12.17;100.00
30618;BME280;17384;51.214;9.202;2023-08-07T04:31:40;98032.50;;;12.27;100.00
30618;BME280;17384;51.214;9.202;2023-08-07T04:34:06;98017.72;;;12.23;100.00
30618;BME280;17384;51.214;9.202;2023-08-07T04:36:31;98036.41;;;12.19;100.00
30618;BME280;17384;51.214;9.202;2023-08-07T04:38:58;98033.91;;;12.30;100.00
30618;BME280;17384;51.214;9.202;2023-08-07T04:41:24;98028.84;;;12.22;100.00
30618;BME280;17384;51.214;9.202;2023-08-07T04:43:49;98030.75;;;12.21;100.00
30618;BME280;17384;51.214;9.202;2023-08-07T04:46:15;98035.59;;;12.19;100.00
30618;BME280;17384;51.214;9.202;2023-08-07T04:48:40;98035.09;;;12.22;100.00
30618;BME280;17384;51.214;9.202;2023-08-07T04:51:06;98033.13;;;12.17;100.00
30618;BME280;17384;51.214;9.202;2023-08-07T04:53:32;98030.16;;;12.19;100.00
30618;BME280;17384;51.214;9.202;2023-08-07T04:55:59;98051.09;;;12.35;100.00
30618;BME280;17384;51.214;9.202;2023-08-07T04:58:25;98023.41;;;12.22;100.00
30618;BME280;17384;51.214;9.202;2023-08-07T05:00:58;98041.53;;;12.33;100.00
30618;BME280;17384;51.214;9.202;2023-08-07T05:03:24;98035.59;;;12.36;100.00
30618;BME280;17384;51.214;9.202;2023-08-07T05:05:50;98035.78;;;12.29;100.00
30618;BME280;17384;51.214;9.202;2023-08-07T05:08:16;98040.22;;;12.35;100.00
30618;BME280;17384;51.214;9.202;2023-08-07T05:10:42;98043.88;;;12.41;100.00
30618;BME280;17384;51.214;9.202;2023-08-07T05:13:08;98048.00;;;12.43;100.00
30618;BME280;17384;51.214;9.202;2023-08-07T05:15:33;98039.50;;;12.40;100.00
30618;BME280;17384;51.214;9.202;2023-08-07T05:17:59;98045.03;;;12.45;100.00
30618;BME280;17384;51.214;9.202;2023-08-07T05:20:24;98041.09;;;12.52;100.00
30618;BME280;17384;51.214;9.202;2023-08-07T05:22:50;98046.78;;;12.51;100.00
30618;BME280;17384;51.214;9.202;2023-08-07T05:25:16;98054.94;;;12.51;100.00
30618;BME280;17384;51.214;9.202;2023-08-07T05:27:45;98063.69;;;12.53;100.00
30618;BME280;17384;51.214;9.202;2023-08-07T05:30:14;98053.69;;;12.59;100.00
30618;BME280;17384;51.214;9.202;2023-08-07T05:32:39;98070.59;;;12.61;100.00
30618;BME280;17384;51.214;9.202;2023-08-07T05:35:06;98065.13;;;12.61;100.00
30618;BME280;17384;51.214;9.202;2023-08-07T05:37:32;98070.66;;;12.49;100.00
30618;BME280;17384;51.214;9.202;2023-08-07T05:39:58;98066.06;;;12.49;100.00
30618;BME280;17384;51.214;9.202;2023-08-07T05:42:24;98070.91;;;12.47;100.00
30618;BME280;17384;51.214;9.202;2023-08-07T05:44:49;98072.56;;;12.48;100.00
30618;BME280;17384;51.214;9.202;2023-08-07T05:47:15;98064.00;;;12.57;100.00
30618;BME280;17384;51.214;9.202;2023-08-07T05:49:40;98068.88;;;12.54;100.00
30618;BME280;17384;51.214;9.202;2023-08-07T05:52:07;98069.84;;;12.48;100.00
30618;BME280;17384;51.214;9.202;2023-08-07T05:54:32;98084.72;;;12.58;100.00
30618;BME280;17384;51.214;9.202;2023-08-07T05:56:58;98068.78;;;12.49;100.00
30618;BME280;17384;51.214;9.202;2023-08-07T05:59:23;98073.72;;;12.52;100.00
30618;BME280;17384;51.214;9.202;2023-08-07T06:01:49;98088.25;;;12.58;100.00
30618;BME280;17384;51.214;9.202;2023-08-07T06:04:15;98074.38;;;12.60;100.00
30618;BME280;17384;51.214;9.202;2023-08-07T06:06:40;98077.91;;;12.60;100.00
30618;BME280;17384;51.214;9.202;2023-08-07T06:09:08;98091.13;;;12.68;100.00
30618;BME280;17384;51.214;9.202;2023-08-07T06:11:33;98082.72;;;12.70;100.00
30618;BME280;17384;51.214;9.202;2023-08-07T06:13:59;98082.38;;;12.66;100.00
30618;BME280;17384;51.214;9.202;2023-08-07T06:16:25;98087.69;;;12.73;100.00
30618;BME280;17384;51.214;9.202;2023-08-07T06:18:51;98088.41;;;12.68;100.00
30618;BME280;17384;51.214;9.202;2023-08-07T06:21:16;98105.47;;;12.64;100.00
30618;BME280;17384;51.214;9.202;2023-08-07T06:23:42;98098.22;;;12.69;100.00
30618;BME280;17384;51.214;9.202;2023-08-07T06:26:07;98099.53;;;12.67;100.00
30618;BME280;17384;51.214;9.202;2023-08-07T06:28:34;98103.41;;;12.71;100.00
30618;BME280;17384;51.214;9.202;2023-08-07T06:31:06;98098.47;;;12.68;100.00
30618;BME280;17384;51.214;9.202;2023-08-07T06:33:32;98111.09;;;12.74;100.00
30618;BME280;17384;51.214;9.202;2023-08-07T06:36:04;98114.75;;;12.79;100.00
30618;BME280;17384;51.214;9.202;2023-08-07T06:38:31;98124.22;;;12.77;100.00
30618;BME280;17384;51.214;9.202;2023-08-07T06:40:57;98109.06;;;12.81;100.00
30618;BME280;17384;51.214;9.202;2023-08-07T06:43:22;98107.41;;;12.80;100.00
30618;BME280;17384;51.214;9.202;2023-08-07T06:45:55;98119.13;;;12.80;100.00
30618;BME280;17384;51.214;9.202;2023-08-07T06:48:21;98121.75;;;12.92;100.00
30618;BME280;17384;51.214;9.202;2023-08-07T06:50:48;98121.91;;;13.02;100.00
30618;BME280;17384;51.214;9.202;2023-08-07T06:53:14;98126.34;;;12.92;100.00
30618;BME280;17384;51.214;9.202;2023-08-07T06:55:45;98122.47;;;12.87;100.00
30618;BME280;17384;51.214;9.202;2023-08-07T06:58:14;98139.97;;;12.75;100.00
30618;BME280;17384;51.214;9.202;2023-08-07T07:00:40;98132.28;;;12.72;100.00
30618;BME280;17384;51.214;9.202;2023-08-07T07:03:06;98141.38;;;12.77;100.00
30618;BME280;17384;51.214;9.202;2023-08-07T07:05:32;98120.09;;;12.91;100.00
30618;BME280;17384;51.214;9.202;2023-08-07T07:07:58;98138.06;;;12.92;100.00
30618;BME280;17384;51.214;9.202;2023-08-07T07:10:24;98145.75;;;12.95;100.00
30618;BME280;17384;51.214;9.202;2023-08-07T07:12:50;98135.44;;;12.97;100.00
30618;BME280;17384;51.214;9.202;2023-08-07T07:15:17;98129.44;;;13.12;100.00
30618;BME280;17384;51.214;9.202;2023-08-07T07:17:43;98144.72;;;13.30;100.00
30618;BME280;17384;51.214;9.202;2023-08-07T07:20:09;98143.88;;;13.29;100.00
30618;BME280;17384;51.214;9.202;2023-08-07T07:22:35;98137.25;;;13.42;100.00
30618;BME280;17384;51.214;9.202;2023-08-07T07:25:01;98129.31;;;13.40;100.00
30618;BME280;17384;51.214;9.202;2023-08-07T07:27:26;98152.34;;;13.66;100.00
30618;BME280;17384;51.214;9.202;2023-08-07T07:29:52;98140.56;;;13.82;100.00
30618;BME280;17384;51.214;9.202;2023-08-07T07:32:18;98152.19;;;13.95;100.00
30618;BME280;17384;51.214;9.202;2023-08-07T07:34:43;98133.28;;;14.10;99.34
30618;BME280;17384;51.214;9.202;2023-08-07T07:37:09;98145.69;;;14.22;98.56
30618;BME280;17384;51.214;9.202;2023-08-07T07:39:35;98139.16;;;14.23;98.10
30618;BME280;17384;51.214;9.202;2023-08-07T07:42:01;98155.31;;;14.30;97.99
30618;BME280;17384;51.214;9.202;2023-08-07T07:44:26;98155.91;;;14.32;97.78
30618;BME280;17384;51.214;9.202;2023-08-07T07:46:56;98161.75;;;14.19;96.95
30618;BME280;17384;51.214;9.202;2023-08-07T07:49:21;98168.03;;;14.19;96.61
30618;BME280;17384;51.214;9.202;2023-08-07T07:51:47;98160.16;;;14.23;96.28
30618;BME280;17384;51.214;9.202;2023-08-07T07:54:14;98159.28;;;14.17;96.76
30618;BME280;17384;51.214;9.202;2023-08-07T07:56:40;98180.34;;;14.22;95.86
30618;BME280;17384;51.214;9.202;2023-08-07T07:59:05;98185.81;;;14.44;95.12
30618;BME280;17384;51.214;9.202;2023-08-07T08:01:31;98176.34;;;14.51;94.68
30618;BME280;17384;51.214;9.202;2023-08-07T08:03:57;98184.16;;;14.43;94.48
30618;BME280;17384;51.214;9.202;2023-08-07T08:06:23;98179.53;;;14.43;94.88
30618;BME280;17384;51.214;9.202;2023-08-07T08:08:48;98176.81;;;14.43;94.94
30618;BME280;17384;51.214;9.202;2023-08-07T08:11:14;98191.44;;;14.37;95.11
30618;BME280;17384;51.214;9.202;2023-08-07T08:13:40;98187.72;;;14.43;94.29
30618;BME280;17384;51.214;9.202;2023-08-07T08:16:06;98190.72;;;14.42;95.78
30618;BME280;17384;51.214;9.202;2023-08-07T08:18:35;98189.06;;;14.24;94.90
30618;BME280;17384;51.214;9.202;2023-08-07T08:21:01;98202.03;;;14.34;95.14
30618;BME280;17384;51.214;9.202;2023-08-07T08:23:26;98212.78;;;14.62;94.91
30618;BME280;17384;51.214;9.202;2023-08-07T08:25:52;98192.06;;;14.66;95.67
30618;BME280;17384;51.214;9.202;2023-08-07T08:28:18;98196.06;;;14.59;94.97
30618;BME280;17384;51.214;9.202;2023-08-07T08:30:44;98201.59;;;14.64;94.79
30618;BME280;17384;51.214;9.202;2023-08-07T08:33:10;98204.72;;;14.77;93.57
30618;BME280;17384;51.214;9.202;2023-08-07T08:35:38;98215.38;;;14.74;93.07
30618;BME280;17384;51.214;9.202;2023-08-07T08:38:04;98218.53;;;14.66;92.92
30618;BME280;17384;51.214;9.202;2023-08-07T08:40:30;98213.28;;;14.59;92.73
30618;BME280;17384;51.214;9.202;2023-08-07T08:42:56;98226.03;;;14.75;91.57
30618;BME280;17384;51.214;9.202;2023-08-07T08:45:26;98234.41;;;14.69;91.60
30618;BME280;17384;51.214;9.202;2023-08-07T08:47:55;98236.72;;;14.77;92.20
30618;BME280;17384;51.214;9.202;2023-08-07T08:50:23;98243.47;;;14.47;93.12
30618;BME280;17384;51.214;9.202;2023-08-07T08:52:51;98251.47;;;14.37;93.76
30618;BME280;17384;51.214;9.202;2023-08-07T08:55:20;98247.97;;;14.20;93.54
30618;BME280;17384;51.214;9.202;2023-08-07T08:57:46;98251.47;;;14.15;93.95
30618;BME280;17384;51.214;9.202;2023-08-07T09:00:14;98254.94;;;14.11;93.75
30618;BME280;17384;51.214;9.202;2023-08-07T09:02:51;98249.56;;;14.16;93.52
30618;BME280;17384;51.214;9.202;2023-08-07T09:05:19;98239.22;;;14.18;93.74
30618;BME280;17384;51.214;9.202;2023-08-07T09:07:48;98246.38;;;15.16;92.62
30618;BME280;17384;51.214;9.202;2023-08-07T09:10:15;98252.03;;;15.37;90.05
30618;BME280;17384;51.214;9.202;2023-08-07T09:12:45;98252.63;;;15.71;89.42
30618;BME280;17384;51.214;9.202;2023-08-07T09:15:15;98252.41;;;15.77;88.42
30618;BME280;17384;51.214;9.202;2023-08-07T09:17:42;98253.81;;;15.21;89.08
30618;BME280;17384;51.214;9.202;2023-08-07T09:20:10;98242.97;;;15.58;89.12
30618;BME280;17384;51.214;9.202;2023-08-07T09:22:41;98264.69;;;16.12;88.63
30618;BME280;17384;51.214;9.202;2023-08-07T09:25:08;98267.38;;;16.07;88.54
30618;BME280;17384;51.214;9.202;2023-08-07T09:27:36;98261.34;;;16.05;87.84
30618;BME280;17384;51.214;9.202;2023-08-07T09:30:02;98256.75;;;15.73;86.75
30618;BME280;17384;51.214;9.202;2023-08-07T09:32:28;98272.81;;;15.65;87.46
30618;BME280;17384;51.214;9.202;2023-08-07T09:34:54;98269.50;;;15.57;87.42
30618;BME280;17384;51.214;9.202;2023-08-07T09:37:20;98269.44;;;15.89;87.14
30618;BME280;17384;51.214;9.202;2023-08-07T09:39:46;98279.44;;;16.11;88.88
30618;BME280;17384;51.214;9.202;2023-08-07T09:42:14;98271.91;;;15.91;87.22
30618;BME280;17384;51.214;9.202;2023-08-07T09:44:43;98266.34;;;16.13;85.99
30618;BME280;17384;51.214;9.202;2023-08-07T09:47:17;98274.13;;;16.36;86.14
30618;BME280;17384;51.214;9.202;2023-08-07T09:49:44;98275.69;;;16.27;85.01
30618;BME280;17384;51.214;9.202;2023-08-07T09:52:13;98283.31;;;16.20;84.59
30618;BME280;17384;51.214;9.202;2023-08-07T09:54:39;98282.91;;;15.96;85.10
30618;BME280;17384;51.214;9.202;2023-08-07T09:57:06;98285.78;;;15.79;85.95
30618;BME280;17384;51.214;9.202;2023-08-07T09:59:33;98290.22;;;15.90;87.01
30618;BME280;17384;51.214;9.202;2023-08-07T10:02:00;98292.59;;;15.77;88.05
30618;BME280;17384;51.214;9.202;2023-08-07T10:04:27;98293.69;;;15.49;90.42
30618;BME280;17384;51.214;9.202;2023-08-07T10:06:53;98313.66;;;15.49;91.52
30618;BME280;17384;51.214;9.202;2023-08-07T10:09:20;98305.00;;;15.04;90.10
30618;BME280;17384;51.214;9.202;2023-08-07T10:11:46;98299.91;;;15.12;90.97
30618;BME280;17384;51.214;9.202;2023-08-07T10:14:14;98308.84;;;15.35;90.21
30618;BME280;17384;51.214;9.202;2023-08-07T10:16:40;98306.34;;;15.28;89.37
30618;BME280;17384;51.214;9.202;2023-08-07T10:19:08;98305.16;;;15.73;89.53
30618;BME280;17384;51.214;9.202;2023-08-07T10:21:39;98303.19;;;16.00;88.00
30618;BME280;17384;51.214;9.202;2023-08-07T10:24:06;98316.75;;;15.90;88.98
30618;BME280;17384;51.214;9.202;2023-08-07T10:26:33;98304.03;;;15.69;88.73
30618;BME280;17384;51.214;9.202;2023-08-07T10:29:00;98312.22;;;15.69;88.60
30618;BME280;17384;51.214;9.202;2023-08-07T10:31:28;98317.94;;;15.67;90.60
30618;BME280;17384;51.214;9.202;2023-08-07T10:33:55;98317.59;;;15.90;91.09
30618;BME280;17384;51.214;9.202;2023-08-07T10:36:20;98332.88;;;16.23;91.24
30618;BME280;17384;51.214;9.202;2023-08-07T10:38:49;98318.41;;;16.28;91.03
30618;BME280;17384;51.214;9.202;2023-08-07T10:41:18;98326.13;;;16.36;89.66
30618;BME280;17384;51.214;9.202;2023-08-07T10:43:45;98344.03;;;16.12;89.73
30618;BME280;17384;51.214;9.202;2023-08-07T10:46:15;98330.50;;;15.95;90.44
30618;BME280;17384;51.214;9.202;2023-08-07T10:48:45;98331.25;;;15.85;90.48
30618;BME280;17384;51.214;9.202;2023-08-07T10:51:17;98340.41;;;15.69;90.69
30618;BME280;17384;51.214;9.202;2023-08-07T10:53:45;98338.19;;;15.66;88.92
30618;BME280;17384;51.214;9.202;2023-08-07T10:56:16;98344.44;;;15.94;90.29
30618;BME280;17384;51.214;9.202;2023-08-07T10:58:42;98329.72;;;16.00;88.40
30618;BME280;17384;51.214;9.202;2023-08-07T11:03:58;98339.72;;;16.21;86.77
30618;BME280;17384;51.214;9.202;2023-08-07T11:06:27;98339.19;;;16.24;88.34
30618;BME280;17384;51.214;9.202;2023-08-07T11:08:53;98325.09;;;16.05;84.82
30618;BME280;17384;51.214;9.202;2023-08-07T11:11:19;98356.81;;;16.01;86.69
30618;BME280;17384;51.214;9.202;2023-08-07T11:13:45;98351.25;;;15.91;87.60
30618;BME280;17384;51.214;9.202;2023-08-07T11:16:11;98353.59;;;15.77;88.46
30618;BME280;17384;51.214;9.202;2023-08-07T11:18:38;98350.56;;;15.74;87.99
30618;BME280;17384;51.214;9.202;2023-08-07T11:21:10;98370.66;;;15.89;88.38
30618;BME280;17384;51.214;9.202;2023-08-07T11:23:39;98371.25;;;16.66;86.94
30618;BME280;17384;51.214;9.202;2023-08-07T11:26:06;98356.53;;;16.82;85.11
30618;BME280;17384;51.214;9.202;2023-08-07T11:28:32;98369.09;;;17.40;83.34
30618;BME280;17384;51.214;9.202;2023-08-07T11:30:58;98368.81;;;17.52;82.25
30618;BME280;17384;51.214;9.202;2023-08-07T11:33:25;98356.72;;;17.22;81.81
30618;BME280;17384;51.214;9.202;2023-08-07T11:35:51;98358.81;;;17.00;81.73
30618;BME280;17384;51.214;9.202;2023-08-07T11:38:36;98365.19;;;17.26;82.46
30618;BME280;17384;51.214;9.202;2023-08-07T11:41:06;98357.59;;;16.76;80.83
30618;BME280;17384;51.214;9.202;2023-08-07T11:43:36;98361.66;;;16.26;80.67
30618;BME280;17384;51.214;9.202;2023-08-07T11:46:04;98351.09;;;16.45;81.48
30618;BME280;17384;51.214;9.202;2023-08-07T11:48:32;98356.06;;;16.95;82.15
30618;BME280;17384;51.214;9.202;2023-08-07T11:50:59;98348.34;;;17.70;80.92
30618;BME280;17384;51.214;9.202;2023-08-07T11:53:26;98336.53;;;18.15;77.68
30618;BME280;17384;51.214;9.202;2023-08-07T11:55:58;98337.84;;;18.53;76.78
30618;BME280;17384;51.214;9.202;2023-08-07T11:58:25;98333.59;;;19.01;77.99
30618;BME280;17384;51.214;9.202;2023-08-07T12:00:52;98363.97;;;19.35;75.42
30618;BME280;17384;51.214;9.202;2023-08-07T12:03:25;98352.81;;;19.11;73.84
30618;BME280;17384;51.214;9.202;2023-08-07T12:05:52;98356.69;;;19.05;74.86
30618;BME280;17384;51.214;9.202;2023-08-07T12:08:18;98358.59;;;19.05;73.00
30618;BME280;17384;51.214;9.202;2023-08-07T12:10:44;98375.34;;;19.13;71.85
30618;BME280;17384;51.214;9.202;2023-08-07T12:13:12;98367.50;;;19.41;72.15
30618;BME280;17384;51.214;9.202;2023-08-07T12:15:37;98378.78;;;18.49;71.31
30618;BME280;17384;51.214;9.202;2023-08-07T12:18:03;98389.41;;;17.54;74.70
30618;BME280;17384;51.214;9.202;2023-08-07T12:20:28;98404.06;;;17.08;79.58
30618;BME280;17384;51.214;9.202;2023-08-07T12:22:54;98401.56;;;16.22;83.68
30618;BME280;17384;51.214;9.202;2023-08-07T12:25:20;98405.81;;;16.03;85.43
30618;BME280;17384;51.214;9.202;2023-08-07T12:27:45;98383.66;;;16.41;86.52
30618;BME280;17384;51.214;9.202;2023-08-07T12:30:13;98395.41;;;17.36;86.86
30618;BME280;17384;51.214;9.202;2023-08-07T12:32:38;98372.94;;;17.54;82.64
30618;BME280;17384;51.214;9.202;2023-08-07T12:35:04;98376.06;;;17.88;82.57
30618;BME280;17384;51.214;9.202;2023-08-07T12:37:33;98387.84;;;17.79;81.00
30618;BME280;17384;51.214;9.202;2023-08-07T12:39:59;98377.16;;;17.72;79.74
30618;BME280;17384;51.214;9.202;2023-08-07T12:42:24;98383.53;;;17.15;79.65
30618;BME280;17384;51.214;9.202;2023-08-07T12:44:50;98387.22;;;16.84;78.91
30618;BME280;17384;51.214;9.202;2023-08-07T12:47:15;98381.09;;;15.93;80.93
30618;BME280;17384;51.214;9.202;2023-08-07T12:49:41;98415.06;;;15.48;83.07
30618;BME280;17384;51.214;9.202;2023-08-07T12:52:07;98427.31;;;15.18;85.92
30618;BME280;17384;51.214;9.202;2023-08-07T12:54:32;98405.78;;;15.00;86.71
30618;BME280;17384;51.214;9.202;2023-08-07T12:56:58;98412.25;;;14.94;88.25
30618;BME280;17384;51.214;9.202;2023-08-07T12:59:23;98415.16;;;14.87;87.20